Time;durP1;ratioP1;P1;durP2;ratioP2;P2;SDS_P1;SDS_P2;PMS_P1;PMS_P2;Temp;Humidity;BMP_temperature;BMP_pressure;BME280_temperature;BME280_humidity;BME280_pressure;Samples;Min_cycle;Max_cycle;Signal;HPM_P1;HPM_P2
2022/03/13 00:00:39;;;;;;;;;11.50;11.50;;;;;11.42;60.38;101300.91;5086751;28;10443;-68
2022/03/13 00:03:12;;;;;;;;;17.75;15.00;;;;;11.41;60.46;101299.22;5083079;28;10630;-67
2022/03/13 00:05:41;;;;;;;;;6.50;6.50;;;;;11.42;60.72;101302.78;5088801;28;10618;-71
2022/03/13 00:08:29;;;;;;;;;11.50;10.00;;;;;11.39;61.03;101301.25;5087255;28;10224;-68
2022/03/13 00:11:17;;;;;;;;;8.50;8.50;;;;;11.39;61.07;101303.94;5078875;28;10464;-67
2022/03/13 00:13:51;;;;;;;;;6.25;6.00;;;;;11.38;61.08;101310.41;5087349;28;10424;-68
2022/03/13 00:16:18;;;;;;;;;7.00;6.00;;;;;11.39;61.21;101307.50;5090253;28;10295;-68
2022/03/13 00:18:49;;;;;;;;;10.00;9.75;;;;;11.37;61.19;101309.56;5092559;28;10290;-69
2022/03/13 00:21:18;;;;;;;;;7.50;7.50;;;;;11.34;61.34;101315.34;5109340;28;10478;-67
2022/03/13 00:23:46;;;;;;;;;8.00;6.00;;;;;11.34;61.33;101309.94;5092445;28;11567;-67
2022/03/13 00:26:15;;;;;;;;;10.00;7.00;;;;;11.36;61.23;101321.44;5092746;28;10334;-68
2022/03/13 00:28:41;;;;;;;;;11.25;10.25;;;;;11.33;61.44;101313.66;5093658;28;10552;-70
2022/03/13 00:31:07;;;;;;;;;7.00;6.50;;;;;11.35;61.69;101308.91;5089711;28;10458;-68
2022/03/13 00:33:34;;;;;;;;;12.50;8.00;;;;;11.37;61.23;101308.72;5114953;27;11060;-68
2022/03/13 00:36:01;;;;;;;;;10.00;8.00;;;;;11.36;61.29;101316.00;5107956;27;10354;-68
2022/03/13 00:38:27;;;;;;;;;8.50;7.00;;;;;11.38;61.10;101313.09;5093572;28;10500;-70
2022/03/13 00:40:57;;;;;;;;;11.00;9.75;;;;;11.33;60.61;101319.09;5093311;28;10345;-69
2022/03/13 00:43:27;;;;;;;;;10.75;10.75;;;;;11.35;60.33;101310.75;5093299;28;10521;-68
2022/03/13 00:45:54;;;;;;;;;8.50;5.75;;;;;11.34;60.74;101307.22;5093080;28;10521;-69
2022/03/13 00:48:23;;;;;;;;;7.25;6.00;;;;;11.35;60.36;101298.06;5091474;28;10300;-67
2022/03/13 00:50:50;;;;;;;;;8.75;8.00;;;;;11.37;60.25;101298.72;5090536;28;10366;-73
2022/03/13 00:53:16;;;;;;;;;10.75;9.00;;;;;11.39;60.23;101293.09;5093027;28;10376;-69
2022/03/13 00:55:43;;;;;;;;;7.00;7.00;;;;;11.38;60.15;101300.41;5093230;28;10390;-68
2022/03/13 00:58:12;;;;;;;;;7.00;6.00;;;;;11.39;60.30;101295.81;5093139;28;10509;-68
2022/03/13 01:00:39;;;;;;;;;6.00;4.75;;;;;11.37;60.15;101300.59;5091557;28;11055;-68
2022/03/13 01:03:05;;;;;;;;;5.00;4.50;;;;;11.36;60.01;101299.75;5088864;28;10300;-68
2022/03/13 01:05:32;;;;;;;;;8.50;8.50;;;;;11.33;60.17;101296.56;5092104;28;10349;-69
2022/03/13 01:07:59;;;;;;;;;8.50;8.00;;;;;11.38;59.94;101289.56;5092881;28;10409;-68
2022/03/13 01:10:26;;;;;;;;;5.75;5.75;;;;;11.33;60.30;101296.56;5087702;28;10421;-68
2022/03/13 01:12:53;;;;;;;;;8.00;8.00;;;;;11.36;59.99;101285.34;5092589;28;10220;-69
2022/03/13 01:15:20;;;;;;;;;7.75;6.50;;;;;11.28;60.48;101280.00;5092944;28;10426;-68
2022/03/13 01:17:47;;;;;;;;;10.00;10.00;;;;;11.29;60.60;101287.09;5092361;28;10273;-68
2022/03/13 01:20:18;;;;;;;;;9.75;9.50;;;;;11.28;60.10;101283.56;5108524;28;10430;-68
2022/03/13 01:22:45;;;;;;;;;7.75;6.50;;;;;11.29;60.23;101284.41;5092449;28;10483;-69
2022/03/13 01:25:13;;;;;;;;;9.50;9.00;;;;;11.26;60.05;101285.59;5103620;28;10299;-68
2022/03/13 01:27:41;;;;;;;;;10.50;9.25;;;;;11.27;61.14;101290.00;5091273;28;10603;-68
2022/03/13 01:30:08;;;;;;;;;8.00;8.00;;;;;11.26;62.10;101282.91;5092538;28;10611;-68
2022/03/13 01:32:36;;;;;;;;;7.00;6.25;;;;;11.22;62.54;101281.59;5090742;28;11062;-68
2022/03/13 01:35:03;;;;;;;;;6.00;6.00;;;;;11.17;63.36;101275.03;5092245;28;10426;-68
2022/03/13 01:37:37;;;;;;;;;10.00;8.25;;;;;11.17;63.50;101281.28;5092293;28;10454;-69
2022/03/13 01:40:21;;;;;;;;;7.50;7.25;;;;;11.13;62.94;101276.41;5091685;28;10414;-69
2022/03/13 01:42:49;;;;;;;;;6.00;5.00;;;;;11.09;62.75;101273.22;5091813;28;10721;-69
2022/03/13 01:45:18;;;;;;;;;7.50;7.50;;;;;11.14;62.88;101286.22;5091122;28;10350;-68
2022/03/13 01:47:46;;;;;;;;;11.50;11.00;;;;;11.05;62.46;101272.75;5092292;28;10447;-67
2022/03/13 01:50:14;;;;;;;;;9.50;9.50;;;;;11.03;62.14;101268.53;5092292;28;10653;-68
2022/03/13 01:52:44;;;;;;;;;10.25;9.75;;;;;10.99;61.78;101267.22;5091262;28;10432;-67
2022/03/13 01:55:11;;;;;;;;;16.00;12.50;;;;;11.00;62.11;101264.31;5086987;28;10609;-69
2022/03/13 01:57:38;;;;;;;;;11.50;10.75;;;;;10.99;61.74;101262.63;5091856;28;10539;-69
2022/03/13 02:00:09;;;;;;;;;6.50;6.50;;;;;10.95;62.63;101260.47;5084817;28;11431;-68
2022/03/13 02:02:46;;;;;;;;;13.75;11.75;;;;;10.95;61.82;101255.06;5091973;28;10369;-68
2022/03/13 02:05:26;;;;;;;;;14.00;13.25;;;;;10.93;61.71;101254.41;5089893;28;10524;-69
2022/03/13 02:07:52;;;;;;;;;9.75;9.75;;;;;10.96;61.34;101243.19;5090438;28;10610;-69
2022/03/13 02:10:20;;;;;;;;;11.75;10.25;;;;;10.91;61.24;101223.94;5090691;28;10441;-69
2022/03/13 02:12:47;;;;;;;;;11.25;10.50;;;;;10.90;61.19;101236.59;5090245;28;11342;-69
2022/03/13 02:15:13;;;;;;;;;9.00;9.00;;;;;10.95;61.91;101230.66;5090453;28;10614;-68
2022/03/13 02:17:39;;;;;;;;;6.50;6.50;;;;;10.91;61.60;101235.63;5089080;28;10520;-68
2022/03/13 02:20:14;;;;;;;;;9.00;6.75;;;;;10.95;61.27;101231.50;5091641;28;10407;-68
2022/03/13 02:22:45;;;;;;;;;9.50;8.75;;;;;10.89;61.96;101224.09;5091265;28;10488;-68
2022/03/13 02:25:21;;;;;;;;;6.00;6.00;;;;;10.92;61.28;101222.91;5090116;28;10465;-69
2022/03/13 02:27:50;;;;;;;;;10.50;10.25;;;;;10.78;61.38;101217.25;5102457;28;10463;-68
2022/03/13 02:30:22;;;;;;;;;9.25;9.00;;;;;10.84;62.02;101215.66;5089190;28;10486;-69
2022/03/13 02:32:48;;;;;;;;;11.25;8.75;;;;;10.75;61.95;101206.78;5089358;28;10567;-69
2022/03/13 02:35:17;;;;;;;;;9.00;8.25;;;;;10.83;61.71;101211.28;5091059;28;10409;-69
2022/03/13 02:37:43;;;;;;;;;12.75;9.00;;;;;10.86;61.53;101205.50;5090330;28;10364;-69
2022/03/13 02:40:24;;;;;;;;;2.00;2.00;;;;;10.86;61.07;101205.50;5091173;28;10416;-68
2022/03/13 02:42:52;;;;;;;;;5.50;5.50;;;;;10.89;61.15;101199.72;5083806;28;11535;-69
2022/03/13 02:45:28;;;;;;;;;7.00;6.00;;;;;10.88;60.83;101199.91;5084376;28;10422;-68
2022/03/13 02:47:55;;;;;;;;;10.25;8.00;;;;;10.84;61.21;101202.13;5085832;28;10301;-68
2022/03/13 02:50:22;;;;;;;;;4.75;4.75;;;;;10.81;61.47;101198.94;5090109;28;10273;-67
2022/03/13 02:52:49;;;;;;;;;6.00;6.00;;;;;10.76;62.22;101205.75;5090884;28;10195;-68
2022/03/13 02:55:15;;;;;;;;;8.00;8.00;;;;;10.82;61.36;101197.91;5106746;28;10481;-69
2022/03/13 02:57:42;;;;;;;;;5.00;5.00;;;;;10.81;61.70;101204.38;5086964;28;10537;-68
2022/03/13 03:00:08;;;;;;;;;14.75;8.75;;;;;10.73;62.03;101199.88;5079754;28;10355;-68
2022/03/13 03:02:35;;;;;;;;;6.25;6.25;;;;;10.79;61.42;101197.25;5088009;28;10696;-68
2022/03/13 03:05:07;;;;;;;;;5.75;5.25;;;;;10.75;61.51;101190.53;5087858;28;10497;-68
2022/03/13 03:07:34;;;;;;;;;6.50;4.75;;;;;10.77;61.38;101193.06;5090947;28;10416;-67
2022/03/13 03:10:05;;;;;;;;;9.00;5.00;;;;;10.77;61.57;101185.78;5091182;28;10455;-67
2022/03/13 03:12:34;;;;;;;;;5.75;5.00;;;;;10.78;61.10;101192.03;5082050;28;10416;-69
2022/03/13 03:15:00;;;;;;;;;6.25;4.50;;;;;10.83;61.13;101194.19;5090458;28;10292;-68
2022/03/13 03:17:27;;;;;;;;;8.00;7.00;;;;;10.79;61.16;101189.13;5089644;28;10430;-67
2022/03/13 03:19:54;;;;;;;;;7.25;4.25;;;;;10.79;61.60;101191.84;5082875;28;10298;-67
2022/03/13 03:22:21;;;;;;;;;5.50;4.50;;;;;10.75;61.71;101195.94;5082551;28;10289;-68
2022/03/13 03:24:49;;;;;;;;;11.25;6.00;;;;;10.66;61.88;101199.75;5090228;28;11014;-67
2022/03/13 03:27:18;;;;;;;;;10.75;10.00;;;;;10.63;61.98;101191.97;5085694;28;10327;-68
2022/03/13 03:29:45;;;;;;;;;7.00;6.75;;;;;10.59;62.61;101193.34;5089306;28;10511;-71
2022/03/13 03:32:11;;;;;;;;;5.25;5.25;;;;;10.60;62.60;101194.19;5090497;28;11305;-72
2022/03/13 03:34:37;;;;;;;;;10.50;8.00;;;;;10.58;62.58;101188.97;5090156;28;10383;-72
2022/03/13 03:37:04;;;;;;;;;6.75;5.50;;;;;10.54;63.00;101206.59;5090651;28;10565;-72
2022/03/13 03:39:32;;;;;;;;;8.75;7.00;;;;;10.55;62.63;101197.44;5088500;28;10542;-70
2022/03/13 03:42:00;;;;;;;;;10.00;8.50;;;;;10.50;63.05;101207.97;5090045;28;10480;-72
2022/03/13 03:44:27;;;;;;;;;3.50;3.50;;;;;10.47;62.92;101202.94;5085792;28;10731;-71
2022/03/13 03:46:55;;;;;;;;;7.75;5.50;;;;;10.42;62.90;101206.19;5085781;28;10446;-69
2022/03/13 03:49:21;;;;;;;;;7.25;5.00;;;;;10.51;63.20;101209.66;5087425;28;10415;-71
2022/03/13 03:51:48;;;;;;;;;8.50;8.50;;;;;10.44;62.94;101214.97;5092420;28;10313;-71
2022/03/13 03:54:14;;;;;;;;;8.00;8.00;;;;;10.42;62.94;101213.47;5088952;28;10438;-71
2022/03/13 03:56:42;;;;;;;;;11.00;10.00;;;;;10.37;62.83;101207.72;5092961;28;10518;-70
2022/03/13 03:59:08;;;;;;;;;14.50;11.00;;;;;10.32;62.95;101208.25;5088961;28;10530;-71
2022/03/13 04:01:40;;;;;;;;;14.75;13.50;;;;;10.30;63.42;101204.88;5090409;28;11504;-71
2022/03/13 04:04:14;;;;;;;;;9.50;9.50;;;;;10.18;63.40;101209.84;5094213;28;10644;-71
2022/03/13 04:06:41;;;;;;;;;9.00;9.00;;;;;10.24;63.27;101211.03;5089425;28;10708;-71
2022/03/13 04:09:09;;;;;;;;;7.00;5.75;;;;;10.24;63.28;101216.44;5092309;28;10598;-70
2022/03/13 04:11:36;;;;;;;;;15.75;13.00;;;;;10.20;63.46;101215.06;5094228;28;10615;-71
2022/03/13 04:14:03;;;;;;;;;15.00;12.00;;;;;10.16;63.79;101214.59;5094354;28;10729;-71
2022/03/13 04:16:30;;;;;;;;;14.50;11.75;;;;;10.11;63.70;101208.84;5094232;28;10843;-71
2022/03/13 04:18:57;;;;;;;;;12.25;12.25;;;;;10.09;63.95;101208.19;5093000;28;11596;-71
2022/03/13 04:21:24;;;;;;;;;14.00;13.25;;;;;10.14;63.65;101216.59;5093554;28;10676;-71
2022/03/13 04:23:51;;;;;;;;;20.00;12.75;;;;;10.14;63.66;101202.22;5091920;28;10871;-67
2022/03/13 04:26:17;;;;;;;;;16.50;11.00;;;;;10.12;64.00;101204.28;5093018;28;10794;-69
2022/03/13 04:28:49;;;;;;;;;9.75;9.75;;;;;10.08;64.13;101209.19;5094453;28;10700;-71
2022/03/13 04:31:17;;;;;;;;;15.00;12.75;;;;;10.03;64.48;101213.47;5092607;28;10680;-70
2022/03/13 04:33:46;;;;;;;;;12.50;12.50;;;;;9.96;64.66;101207.91;5092810;28;10862;-70
2022/03/13 04:36:13;;;;;;;;;15.25;11.50;;;;;10.02;64.46;101209.91;5092846;28;10893;-69
2022/03/13 04:38:41;;;;;;;;;11.00;9.50;;;;;9.98;64.66;101208.59;5092954;28;10699;-70
2022/03/13 04:41:08;;;;;;;;;12.50;10.75;;;;;9.98;64.95;101213.16;5090960;28;10894;-69
2022/03/13 04:43:35;;;;;;;;;11.00;10.00;;;;;9.91;65.28;101212.16;5090126;28;10849;-68
2022/03/13 04:46:01;;;;;;;;;18.75;11.75;;;;;9.86;65.63;101210.81;5092746;28;11038;-70
2022/03/13 04:48:28;;;;;;;;;15.50;13.00;;;;;9.77;65.86;101203.75;5093584;28;10804;-70
2022/03/13 04:50:54;;;;;;;;;10.50;10.50;;;;;9.81;65.70;101213.22;5108965;28;10835;-68
2022/03/13 04:53:21;;;;;;;;;14.75;12.50;;;;;9.86;65.89;101207.28;5086248;28;11574;-70
2022/03/13 04:55:47;;;;;;;;;10.00;8.00;;;;;9.88;65.42;101203.38;5083234;28;11645;-70
2022/03/13 04:58:14;;;;;;;;;11.75;8.00;;;;;9.83;65.88;101203.06;5086006;28;10557;-71
2022/03/13 05:00:40;;;;;;;;;11.00;9.25;;;;;9.88;65.85;101200.66;5093098;28;10884;-70
2022/03/13 05:03:07;;;;;;;;;16.00;11.00;;;;;9.90;65.82;101205.06;5074461;28;10766;-69
2022/03/13 05:05:34;;;;;;;;;11.25;11.25;;;;;9.90;65.82;101197.78;5092206;28;10904;-70
2022/03/13 05:08:04;;;;;;;;;12.75;9.00;;;;;9.88;65.76;101194.41;5093391;28;10918;-70
2022/03/13 05:10:37;;;;;;;;;12.00;10.50;;;;;9.87;65.90;101188.16;5093344;28;10770;-69
2022/03/13 05:13:05;;;;;;;;;11.25;11.00;;;;;9.90;65.98;101199.66;5091763;28;10783;-70
2022/03/13 05:15:32;;;;;;;;;12.75;10.00;;;;;9.90;65.87;101195.06;5093068;28;10819;-69
2022/03/13 05:18:00;;;;;;;;;15.25;15.25;;;;;9.94;65.82;101196.44;5091509;28;10771;-70
2022/03/13 05:20:27;;;;;;;;;15.50;15.00;;;;;9.93;66.00;101197.47;5093004;28;10740;-71
2022/03/13 05:22:54;;;;;;;;;9.50;9.50;;;;;9.98;65.82;101191.50;5088540;28;10968;-70
2022/03/13 05:25:24;;;;;;;;;9.75;9.75;;;;;9.96;66.12;101190.84;5090118;28;10743;-70
2022/03/13 05:27:51;;;;;;;;;9.75;9.50;;;;;9.97;65.97;101197.94;5092871;28;10724;-70
2022/03/13 05:30:20;;;;;;;;;11.25;10.75;;;;;10.00;65.91;101192.19;5091913;28;11504;-70
2022/03/13 05:32:47;;;;;;;;;15.25;14.00;;;;;9.92;66.16;101186.81;5091768;28;10792;-70
2022/03/13 05:35:14;;;;;;;;;15.50;12.25;;;;;9.90;66.18;101191.53;5092577;28;10709;-68
2022/03/13 05:37:41;;;;;;;;;12.50;10.75;;;;;9.87;66.24;101188.16;5082886;28;10791;-70
2022/03/13 05:40:15;;;;;;;;;10.00;7.75;;;;;9.92;66.09;101184.13;5087821;28;10918;-70
2022/03/13 05:42:44;;;;;;;;;16.50;13.25;;;;;9.93;65.84;101181.22;5089708;28;10606;-69
2022/03/13 05:45:13;;;;;;;;;22.75;15.75;;;;;9.95;65.60;101189.16;5091440;28;10893;-69
2022/03/13 05:47:47;;;;;;;;;16.75;13.75;;;;;9.97;65.47;101195.25;5091568;28;11105;-69
2022/03/13 05:50:15;;;;;;;;;15.75;15.00;;;;;9.90;65.20;101192.38;5091545;28;10934;-70
2022/03/13 05:52:43;;;;;;;;;18.00;15.50;;;;;9.83;65.71;101197.66;5087611;28;10795;-70
2022/03/13 05:55:10;;;;;;;;;16.00;13.00;;;;;9.87;65.39;101196.28;5082781;28;10971;-70
2022/03/13 05:57:37;;;;;;;;;13.50;12.50;;;;;9.89;65.29;101198.81;5092585;28;10753;-69
2022/03/13 06:00:06;;;;;;;;;17.50;17.50;;;;;9.90;64.64;101197.78;5092137;28;11100;-70
2022/03/13 06:02:41;;;;;;;;;24.25;19.75;;;;;9.91;64.68;101199.47;5092119;28;10927;-70
2022/03/13 06:05:10;;;;;;;;;30.50;15.75;;;;;9.90;64.83;101189.66;5091923;28;11765;-69
2022/03/13 06:07:40;;;;;;;;;15.50;15.50;;;;;9.92;64.47;101189.53;5091243;28;10963;-68
2022/03/13 06:10:15;;;;;;;;;24.50;21.50;;;;;9.90;64.18;101189.66;5090373;28;10837;-67
2022/03/13 06:12:41;;;;;;;;;19.75;16.00;;;;;9.86;63.89;101186.47;5091469;28;11091;-68
2022/03/13 06:15:11;;;;;;;;;20.50;19.25;;;;;9.78;63.91;101196.50;5089312;28;10929;-68
2022/03/13 06:17:46;;;;;;;;;24.75;22.50;;;;;9.81;63.57;101196.97;5090457;28;11088;-68
2022/03/13 06:20:14;;;;;;;;;17.50;17.00;;;;;9.87;63.37;101190.88;5079559;28;11957;-69
2022/03/13 06:22:44;;;;;;;;;23.00;19.00;;;;;9.91;63.45;101201.31;5091232;28;11836;-69
2022/03/13 06:25:13;;;;;;;;;24.50;21.75;;;;;9.92;62.98;101206.59;5090138;28;10843;-70
2022/03/13 06:27:41;;;;;;;;;18.00;13.75;;;;;9.92;62.73;101203.88;5088041;28;11088;-70
2022/03/13 06:30:14;;;;;;;;;26.25;21.75;;;;;9.92;62.83;101208.44;5090610;28;10975;-70
2022/03/13 06:32:42;;;;;;;;;21.50;17.25;;;;;9.93;62.26;101207.44;5090983;28;10991;-69
2022/03/13 06:35:10;;;;;;;;;21.00;18.00;;;;;9.87;61.91;101215.19;5089819;28;10952;-68
2022/03/13 06:37:38;;;;;;;;;29.75;25.25;;;;;9.90;61.96;101214.00;5082827;28;11946;-69
2022/03/13 06:40:09;;;;;;;;;21.50;13.00;;;;;9.92;61.58;101214.69;5090310;28;11104;-69
2022/03/13 06:42:36;;;;;;;;;28.25;24.00;;;;;9.89;61.10;101215.03;5089746;28;10832;-68
2022/03/13 06:45:03;;;;;;;;;37.75;27.50;;;;;9.88;61.11;101207.94;5091026;28;11486;-68
2022/03/13 06:47:30;;;;;;;;;24.75;23.25;;;;;9.89;61.13;101217.72;5088349;28;11478;-70
2022/03/13 06:49:56;;;;;;;;;27.25;24.25;;;;;9.86;61.18;101226.19;5091114;28;11225;-69
2022/03/13 06:52:23;;;;;;;;;22.75;20.50;;;;;9.82;60.97;101209.47;5083934;28;11213;-69
2022/03/13 06:54:49;;;;;;;;;25.75;25.25;;;;;9.88;60.93;101216.03;5089714;28;11897;-69
2022/03/13 06:57:21;;;;;;;;;29.75;27.00;;;;;9.91;61.07;101212.16;5073887;28;11212;-68
2022/03/13 06:59:48;;;;;;;;;28.50;26.25;;;;;9.90;61.38;101210.47;5090957;28;11466;-68
2022/03/13 07:02:14;;;;;;;;;24.25;20.25;;;;;9.92;61.17;101208.44;5086075;28;11495;-68
2022/03/13 07:04:41;;;;;;;;;24.75;21.50;;;;;9.95;60.99;101203.53;5070594;28;11198;-69
2022/03/13 07:07:08;;;;;;;;;36.00;32.00;;;;;9.95;60.42;101208.09;5072210;28;11104;-70
2022/03/13 07:09:35;;;;;;;;;31.25;30.00;;;;;9.98;60.82;101214.00;5090815;28;11499;-69
2022/03/13 07:12:01;;;;;;;;;28.25;22.00;;;;;9.99;60.83;101214.84;5090460;28;11607;-68
2022/03/13 07:14:30;;;;;;;;;35.00;31.50;;;;;9.98;60.63;101208.59;5066915;28;11228;-69
2022/03/13 07:16:57;;;;;;;;;30.75;24.75;;;;;9.96;60.92;101213.31;5090427;28;12230;-69
2022/03/13 07:19:24;;;;;;;;;26.75;24.00;;;;;9.96;60.88;101216.03;5089567;28;11481;-70
2022/03/13 07:21:51;;;;;;;;;36.75;30.25;;;;;9.96;60.95;101223.31;5090085;28;11028;-69
2022/03/13 07:24:17;;;;;;;;;29.75;26.75;;;;;10.00;60.43;101224.63;5088956;28;11583;-70
2022/03/13 07:26:44;;;;;;;;;28.25;24.75;;;;;10.01;60.22;101227.16;5090404;28;11043;-69
2022/03/13 07:29:10;;;;;;;;;26.75;23.75;;;;;10.08;60.09;101227.28;5085252;28;11271;-68
2022/03/13 07:31:37;;;;;;;;;19.50;19.50;;;;;10.10;59.87;101220.69;5088312;28;11144;-69
2022/03/13 07:34:03;;;;;;;;;31.00;27.75;;;;;10.13;59.92;101223.03;5085229;28;11215;-70
2022/03/13 07:36:32;;;;;;;;;31.50;23.00;;;;;10.20;59.06;101220.47;5070265;28;11563;-69
2022/03/13 07:38:58;;;;;;;;;33.75;31.50;;;;;10.14;59.66;101219.31;5074799;28;11172;-69
2022/03/13 07:41:27;;;;;;;;;28.25;27.50;;;;;10.20;59.40;101228.59;5089900;28;11498;-69
2022/03/13 07:43:54;;;;;;;;;30.00;29.25;;;;;10.28;58.84;101223.16;5083749;28;11253;-69
2022/03/13 07:46:20;;;;;;;;;22.25;18.75;;;;;10.33;58.79;101233.47;5090076;28;11212;-69
2022/03/13 07:48:47;;;;;;;;;28.50;28.00;;;;;10.37;59.08;101232.91;5090385;28;11152;-68
2022/03/13 07:51:13;;;;;;;;;38.50;27.75;;;;;10.39;58.84;101236.28;5089838;28;11496;-68
2022/03/13 07:53:43;;;;;;;;;36.75;32.00;;;;;10.42;58.90;101235.94;5088917;28;11271;-69
2022/03/13 07:56:10;;;;;;;;;25.00;21.25;;;;;10.45;59.19;101237.47;5085995;28;11469;-68
2022/03/13 07:58:36;;;;;;;;;22.75;21.25;;;;;10.51;59.50;101241.31;5075092;28;10999;-69
2022/03/13 08:01:02;;;;;;;;;27.75;25.50;;;;;10.48;58.94;101234.38;5088073;28;11199;-68
2022/03/13 08:03:35;;;;;;;;;27.50;26.25;;;;;10.52;58.74;101233.00;5088295;28;11249;-68
2022/03/13 08:06:02;;;;;;;;;26.50;24.25;;;;;10.51;58.78;101222.34;5087039;28;11307;-69
2022/03/13 08:08:29;;;;;;;;;25.25;19.00;;;;;10.59;58.34;101220.44;5089556;28;11103;-68
2022/03/13 08:10:55;;;;;;;;;29.25;27.00;;;;;10.66;58.56;101215.16;5084353;28;11046;-68
2022/03/13 08:13:22;;;;;;;;;27.00;25.50;;;;;10.73;58.11;101213.41;5080688;28;11028;-69
2022/03/13 08:15:49;;;;;;;;;26.50;25.75;;;;;10.78;57.97;101209.13;5089138;28;11480;-70
2022/03/13 08:18:15;;;;;;;;;32.75;27.50;;;;;10.95;57.92;101209.00;5088666;28;11467;-69
2022/03/13 08:20:42;;;;;;;;;27.75;27.25;;;;;11.03;57.22;101220.59;5079933;28;11303;-69
2022/03/13 08:23:08;;;;;;;;;35.50;31.00;;;;;11.16;56.91;101211.03;5083712;28;11157;-68
2022/03/13 08:25:36;;;;;;;;;31.25;29.00;;;;;11.26;56.89;101207.00;5089241;28;11860;-68
2022/03/13 08:28:02;;;;;;;;;31.75;29.75;;;;;11.66;56.21;101203.03;5088488;28;11495;-68
2022/03/13 08:30:29;;;;;;;;;26.75;22.75;;;;;11.98;55.39;101204.53;5089622;28;11206;-70
2022/03/13 08:32:56;;;;;;;;;33.50;26.75;;;;;11.95;54.71;101206.78;5087765;28;10811;-71
2022/03/13 08:35:22;;;;;;;;;31.00;24.50;;;;;12.13;54.77;101209.06;5084802;28;11272;-68
2022/03/13 08:37:49;;;;;;;;;25.75;22.25;;;;;12.15;54.17;101199.72;5090397;28;11006;-69
2022/03/13 08:40:16;;;;;;;;;32.50;28.00;;;;;12.36;53.75;101203.50;5092748;28;11204;-68
2022/03/13 08:42:42;;;;;;;;;28.25;27.50;;;;;12.42;53.96;101213.63;5089570;28;11116;-69
2022/03/13 08:45:11;;;;;;;;;34.25;31.25;;;;;12.29;53.19;101206.97;5073242;28;11016;-69
2022/03/13 08:47:38;;;;;;;;;24.50;23.25;;;;;12.25;53.67;101200.25;5106065;28;11129;-70
2022/03/13 08:50:06;;;;;;;;;34.75;29.00;;;;;12.19;54.50;101206.47;5110281;27;10898;-68
2022/03/13 08:52:34;;;;;;;;;29.75;27.00;;;;;12.38;53.22;101201.44;5108900;28;10797;-69
2022/03/13 08:55:03;;;;;;;;;37.00;33.50;;;;;12.24;53.47;101203.16;5091982;28;10766;-68
2022/03/13 08:57:29;;;;;;;;;31.00;28.00;;;;;12.57;52.86;101204.38;5091032;28;10991;-70
2022/03/13 08:59:56;;;;;;;;;32.50;29.25;;;;;12.67;52.53;101192.34;5092210;28;11099;-71
2022/03/13 09:02:23;;;;;;;;;29.25;25.50;;;;;12.41;52.59;101195.63;5091763;28;11066;-66
2022/03/13 09:04:50;;;;;;;;;29.00;24.50;;;;;12.14;53.50;101187.16;5091003;28;10839;-68
2022/03/13 09:07:16;;;;;;;;;31.00;27.50;;;;;12.13;53.88;101190.06;5091953;28;10945;-67
2022/03/13 09:09:46;;;;;;;;;27.75;22.75;;;;;11.96;54.41;101190.31;5090205;28;10935;-67
2022/03/13 09:12:13;;;;;;;;;28.25;25.25;;;;;12.07;54.48;101191.69;5085356;28;10712;-69
2022/03/13 09:14:39;;;;;;;;;29.50;26.00;;;;;12.07;54.25;101188.97;5092443;28;10976;-68
2022/03/13 09:17:06;;;;;;;;;32.50;25.75;;;;;12.39;54.21;101184.09;5092622;28;10798;-68
2022/03/13 09:19:32;;;;;;;;;34.00;27.75;;;;;12.77;52.64;101198.28;5092174;28;11062;-68
2022/03/13 09:21:58;;;;;;;;;35.25;30.75;;;;;13.13;51.35;101192.75;5092337;28;10853;-69
2022/03/13 09:24:25;;;;;;;;;29.00;26.75;;;;;13.31;51.67;101193.13;5101261;28;11156;-68
2022/03/13 09:26:51;;;;;;;;;33.00;30.00;;;;;13.54;50.34;101187.41;5092193;28;11103;-68
2022/03/13 09:29:18;;;;;;;;;28.00;21.00;;;;;13.94;50.23;101193.94;5092255;28;10863;-67
2022/03/13 09:31:44;;;;;;;;;30.50;24.75;;;;;14.08;49.69;101176.59;5091541;28;10658;-68
2022/03/13 09:34:11;;;;;;;;;33.25;29.75;;;;;14.26;48.77;101184.19;5092119;28;10816;-68
2022/03/13 09:36:38;;;;;;;;;26.00;23.25;;;;;14.28;48.46;101187.56;5091949;28;10859;-68
2022/03/13 09:39:07;;;;;;;;;34.50;23.75;;;;;14.40;47.77;101188.66;5088758;28;10417;-70
2022/03/13 09:41:34;;;;;;;;;29.50;24.75;;;;;14.44;47.31;101178.22;5089409;28;10474;-68
2022/03/13 09:44:01;;;;;;;;;31.75;29.50;;;;;14.50;47.27;101185.56;5092199;28;10431;-67
2022/03/13 09:46:28;;;;;;;;;28.75;23.75;;;;;14.61;47.01;101179.47;5092377;28;10681;-68
2022/03/13 09:48:54;;;;;;;;;30.50;25.75;;;;;14.54;46.90;101194.16;5090639;28;10523;-67
2022/03/13 09:51:21;;;;;;;;;26.50;23.75;;;;;14.82;46.47;101189.38;5090832;28;10362;-68
2022/03/13 09:53:49;;;;;;;;;25.00;25.00;;;;;14.93;47.85;101180.59;5090324;28;10449;-68
2022/03/13 09:56:15;;;;;;;;;34.75;33.00;;;;;14.95;45.75;101189.41;5091514;28;10448;-70
2022/03/13 09:58:44;;;;;;;;;33.00;26.00;;;;;14.80;46.17;101172.38;5091734;28;10890;-68
2022/03/13 10:01:11;;;;;;;;;31.25;27.50;;;;;14.83;45.65;101180.16;5091544;28;10572;-68
2022/03/13 10:03:39;;;;;;;;;31.25;25.00;;;;;14.98;46.48;101178.06;5092021;28;10487;-69
2022/03/13 10:06:06;;;;;;;;;25.50;24.00;;;;;14.86;45.71;101193.34;5089003;28;10341;-69
2022/03/13 10:08:34;;;;;;;;;38.25;31.75;;;;;14.34;46.94;101184.00;5118388;27;10545;-69
2022/03/13 10:11:02;;;;;;;;;32.00;26.25;;;;;14.44;46.22;101184.50;5091475;28;10719;-68
2022/03/13 10:13:39;;;;;;;;;27.25;25.00;;;;;14.35;46.53;101188.41;5089797;28;10424;-68
2022/03/13 10:16:08;;;;;;;;;26.25;21.50;;;;;14.43;46.42;101196.44;5116287;27;10631;-69
2022/03/13 10:18:35;;;;;;;;;28.00;26.75;;;;;14.55;45.85;101184.94;5088151;28;10321;-69
2022/03/13 10:21:12;;;;;;;;;28.75;22.50;;;;;14.52;45.97;101183.47;5094854;28;10547;-69
2022/03/13 10:23:40;;;;;;;;;23.50;21.25;;;;;14.53;45.70;101190.59;5089067;28;10310;-70
2022/03/13 10:26:07;;;;;;;;;31.75;27.25;;;;;14.49;46.21;101192.06;5091828;28;10293;-70
2022/03/13 10:28:37;;;;;;;;;24.75;23.25;;;;;14.88;45.51;101194.00;5086478;28;10452;-70
2022/03/13 10:31:03;;;;;;;;;30.75;26.50;;;;;14.63;45.30;101196.50;5091192;28;10330;-71
2022/03/13 10:33:54;;;;;;;;;24.25;21.75;;;;;14.54;45.79;101195.00;5087432;28;10507;-70
2022/03/13 10:36:32;;;;;;;;;26.75;24.00;;;;;14.37;45.46;101194.50;5088784;28;10384;-69
2022/03/13 10:39:03;;;;;;;;;22.50;20.75;;;;;14.59;45.05;101199.81;5088959;28;10379;-70
2022/03/13 10:41:40;;;;;;;;;25.50;24.75;;;;;14.49;45.68;101199.38;5091060;28;10940;-71
2022/03/13 10:44:13;;;;;;;;;30.25;27.75;;;;;14.43;45.18;101198.34;5088051;28;10233;-71
2022/03/13 10:46:42;;;;;;;;;27.00;21.50;;;;;14.69;45.00;101190.22;5105019;28;10565;-71
2022/03/13 10:49:09;;;;;;;;;29.50;25.50;;;;;14.52;44.60;101188.91;5088924;28;10312;-71
2022/03/13 10:51:46;;;;;;;;;29.25;27.75;;;;;14.58;45.41;101187.25;5092383;28;10458;-72
2022/03/13 10:54:34;;;;;;;;;24.75;24.00;;;;;14.49;45.27;101183.88;5091868;28;10412;-72
2022/03/13 10:57:11;;;;;;;;;25.00;25.00;;;;;14.80;44.66;101180.56;5091971;28;10355;-73
2022/03/13 10:59:40;;;;;;;;;24.00;22.75;;;;;14.94;44.58;101176.81;5092825;28;10538;-72
2022/03/13 11:02:17;;;;;;;;;24.50;21.25;;;;;14.88;44.31;101185.84;5094247;28;10318;-72
2022/03/13 11:04:57;;;;;;;;;32.00;26.50;;;;;14.38;44.57;101179.84;5102483;28;10367;-71
2022/03/13 11:07:27;;;;;;;;;27.25;25.25;;;;;14.54;44.94;101192.28;5091045;28;10572;-72
2022/03/13 11:09:55;;;;;;;;;27.75;26.25;;;;;14.63;44.81;101173.84;5084160;28;10605;-71
2022/03/13 11:12:23;;;;;;;;;28.00;24.50;;;;;14.84;44.51;101170.06;5088459;28;10451;-72
2022/03/13 11:14:53;;;;;;;;;25.75;24.75;;;;;14.82;44.52;101161.28;5086121;28;10405;-71
2022/03/13 11:17:27;;;;;;;;;24.25;21.00;;;;;14.79;44.51;101167.97;5087902;28;10306;-71
2022/03/13 11:19:57;;;;;;;;;28.25;26.50;;;;;14.62;44.30;101169.41;5087302;28;10480;-71
2022/03/13 11:22:25;;;;;;;;;24.25;22.00;;;;;14.62;44.43;101167.56;5081513;28;10484;-72